createdAt,value
2022-10-25T00:00:50.327Z,1.20
2022-10-25T00:03:21.161Z,2.20
2022-10-25T00:05:51.504Z,3.20
2022-10-25T00:08:22.557Z,1.70
2022-10-25T00:10:53.295Z,0.80
2022-10-25T00:13:23.643Z,6.80
2022-10-25T00:15:54.526Z,0.70
2022-10-25T00:18:26.099Z,2.00
2022-10-25T00:20:56.731Z,2.70
2022-10-25T00:23:27.792Z,1.50
2022-10-25T00:26:05.410Z,3.80
2022-10-25T00:28:36.282Z,0.70
2022-10-25T00:31:08.875Z,5.20
2022-10-25T00:33:40.843Z,1.10
2022-10-25T00:36:13.531Z,1.50
2022-10-25T00:38:45.861Z,3.50
2022-10-25T00:41:19.165Z,0.80
2022-10-25T00:43:51.832Z,0.90
2022-10-25T00:46:25.870Z,2.00
2022-10-25T00:49:01.614Z,2.20
2022-10-25T00:51:36.550Z,0.70
2022-10-25T00:54:08.933Z,0.80
2022-10-25T00:56:43.255Z,1.50
2022-10-25T00:59:17.788Z,0.80
2022-10-25T01:01:48.766Z,0.80
2022-10-25T01:04:21.559Z,1.00
2022-10-25T01:06:53.839Z,0.90
2022-10-25T01:09:26.994Z,0.90
2022-10-25T01:11:57.450Z,1.20
2022-10-25T01:14:29.110Z,1.50
2022-10-25T01:17:12.142Z,1.60
2022-10-25T01:20:19.245Z,1.00
2022-10-25T01:23:00.117Z,1.10
2022-10-25T01:25:56.678Z,0.80
2022-10-25T01:28:38.768Z,1.90
2022-10-25T01:31:18.477Z,0.50
2022-10-25T01:33:57.169Z,5.70
2022-10-25T01:36:38.812Z,0.80
2022-10-25T01:39:14.006Z,1.20
2022-10-25T01:41:54.501Z,1.20
2022-10-25T01:44:34.113Z,0.50
2022-10-25T01:47:07.745Z,4.90
2022-10-25T01:49:45.628Z,0.90
2022-10-25T01:52:16.656Z,1.90
2022-10-25T01:54:47.981Z,1.30
2022-10-25T01:57:54.734Z,0.80
2022-10-25T02:00:26.833Z,1.50
2022-10-25T02:03:16.061Z,3.40
2022-10-25T02:05:57.283Z,0.90
2022-10-25T02:08:36.364Z,2.10
2022-10-25T02:11:12.657Z,3.50
2022-10-25T02:13:59.225Z,0.80
2022-10-25T02:16:33.350Z,1.20
2022-10-25T02:19:06.772Z,2.20
2022-10-25T02:21:39.224Z,1.10
2022-10-25T02:24:16.532Z,2.50
2022-10-25T02:29:22.469Z,3.50
2022-10-25T02:31:53.796Z,2.40
2022-10-25T02:34:24.292Z,3.50
2022-10-25T02:36:55.407Z,1.10
2022-10-25T02:39:31.253Z,1.10
2022-10-25T02:42:03.123Z,1.70
2022-10-25T02:44:34.058Z,1.30
2022-10-25T02:47:04.989Z,1.20
2022-10-25T02:49:36.126Z,1.20
2022-10-25T02:52:06.678Z,1.10
2022-10-25T02:54:37.332Z,1.70
2022-10-25T02:57:07.813Z,3.90
2022-10-25T02:59:38.189Z,1.00
2022-10-25T03:02:09.217Z,2.10
2022-10-25T03:04:39.870Z,2.70
2022-10-25T03:07:10.647Z,2.60
2022-10-25T03:09:41.264Z,1.70
2022-10-25T03:12:11.892Z,1.90
2022-10-25T03:14:42.206Z,3.10
2022-10-25T03:17:12.793Z,0.90
2022-10-25T03:19:43.125Z,2.50
2022-10-25T03:22:13.460Z,1.30
2022-10-25T03:24:43.785Z,4.90
2022-10-25T03:27:14.121Z,1.70
2022-10-25T03:29:44.432Z,2.80
2022-10-25T03:32:14.731Z,4.00
2022-10-25T03:34:45.066Z,1.60
2022-10-25T03:37:15.659Z,1.00
2022-10-25T03:39:46.006Z,1.20
2022-10-25T03:42:16.665Z,1.10
2022-10-25T03:44:47.027Z,1.20
2022-10-25T03:47:17.368Z,4.30
2022-10-25T03:49:47.720Z,3.90
2022-10-25T03:52:18.012Z,1.30
2022-10-25T03:54:48.384Z,1.30
2022-10-25T03:57:19.005Z,2.20
2022-10-25T03:59:49.688Z,3.50
2022-10-25T04:02:20.103Z,2.50
2022-10-25T04:04:50.525Z,3.50
2022-10-25T04:07:21.622Z,5.20
2022-10-25T04:09:52.007Z,2.50
2022-10-25T04:12:22.583Z,2.00
2022-10-25T04:14:52.996Z,2.20
2022-10-25T04:17:23.880Z,2.50
2022-10-25T04:19:54.179Z,1.60
2022-10-25T04:22:24.587Z,2.80
2022-10-25T04:24:55.101Z,2.90
2022-10-25T04:27:25.520Z,1.90
2022-10-25T04:29:56.610Z,1.40
2022-10-25T04:32:27.338Z,1.90
2022-10-25T04:34:58.138Z,3.10
2022-10-25T04:37:28.554Z,4.00
2022-10-25T04:39:58.971Z,3.60
2022-10-25T04:42:29.509Z,2.20
2022-10-25T04:45:00.304Z,2.50
2022-10-25T04:47:33.355Z,3.20
2022-10-25T04:50:04.749Z,1.90
2022-10-25T04:52:35.099Z,2.80
2022-10-25T04:55:06.676Z,2.40
2022-10-25T04:57:37.142Z,1.40
2022-10-25T05:00:10.272Z,4.00
2022-10-25T05:02:41.060Z,1.80
2022-10-25T05:05:12.078Z,1.60
2022-10-25T05:07:42.808Z,1.60
2022-10-25T05:10:13.383Z,1.90
2022-10-25T05:12:44.539Z,3.10
2022-10-25T05:15:15.733Z,2.20
2022-10-25T05:17:46.222Z,1.70
2022-10-25T05:20:16.680Z,3.00
2022-10-25T05:22:47.144Z,2.00
2022-10-25T05:25:18.148Z,3.90
2022-10-25T05:27:48.914Z,2.00
2022-10-25T05:30:19.779Z,4.30
2022-10-25T05:32:50.877Z,2.10
2022-10-25T05:35:21.608Z,2.30
2022-10-25T05:37:52.282Z,1.90
2022-10-25T05:40:22.606Z,3.20
2022-10-25T05:42:55.361Z,3.60
2022-10-25T05:45:26.326Z,3.60
2022-10-25T05:47:56.941Z,2.90
2022-10-25T05:50:28.007Z,2.20
2022-10-25T05:52:59.240Z,2.30
2022-10-25T05:55:29.878Z,2.60
2022-10-25T05:58:00.824Z,3.10
2022-10-25T06:00:31.510Z,3.20
2022-10-25T06:03:04.369Z,5.20
2022-10-25T06:05:35.791Z,3.70
2022-10-25T06:08:07.326Z,2.90
2022-10-25T06:10:37.746Z,7.10
2022-10-25T06:13:08.973Z,3.60
2022-10-25T06:15:40.017Z,2.70
2022-10-25T06:18:10.378Z,4.60
2022-10-25T06:23:16.816Z,6.20
2022-10-25T06:25:47.591Z,3.20
2022-10-25T06:28:17.983Z,2.70
2022-10-25T06:30:48.316Z,2.20
2022-10-25T06:33:18.614Z,2.60
2022-10-25T06:35:48.962Z,5.10
2022-10-25T06:38:19.260Z,7.10
2022-10-25T06:40:49.920Z,4.60
2022-10-25T06:43:20.604Z,3.50
2022-10-25T06:45:51.254Z,2.50
2022-10-25T06:48:21.639Z,5.50
2022-10-25T06:51:03.789Z,7.40
2022-10-25T06:53:34.601Z,2.80
2022-10-25T06:56:09.190Z,2.90
2022-10-25T06:58:43.224Z,3.20
2022-10-25T07:01:15.867Z,2.40
2022-10-25T07:03:47.376Z,4.60
2022-10-25T07:06:19.753Z,4.10
2022-10-25T07:08:53.190Z,5.00
2022-10-25T07:11:24.841Z,2.50
2022-10-25T07:13:56.004Z,3.70
2022-10-25T07:16:27.447Z,4.70
2022-10-25T07:19:02.695Z,4.90
2022-10-25T07:21:34.223Z,3.20
2022-10-25T07:24:05.192Z,4.40
2022-10-25T07:26:36.424Z,2.70
2022-10-25T07:29:07.151Z,5.00
2022-10-25T07:31:39.524Z,3.40
2022-10-25T07:34:11.870Z,4.90
2022-10-25T07:36:42.734Z,2.50
2022-10-25T07:39:13.372Z,4.30
2022-10-25T07:41:43.996Z,3.80
2022-10-25T07:44:18.318Z,5.00
2022-10-25T07:46:52.229Z,3.40
2022-10-25T07:49:23.249Z,2.20
2022-10-25T07:51:53.905Z,2.60
2022-10-25T07:54:24.913Z,2.00
2022-10-25T07:56:55.978Z,5.20
2022-10-25T07:59:26.579Z,4.20
2022-10-25T08:01:57.303Z,3.70
2022-10-25T08:07:05.961Z,3.00
2022-10-25T08:09:38.587Z,3.80
2022-10-25T08:12:09.487Z,4.80
2022-10-25T08:14:42.306Z,3.40
2022-10-25T08:17:15.609Z,3.40
2022-10-25T08:19:50.279Z,3.50
2022-10-25T08:22:21.686Z,4.10
2022-10-25T08:24:52.397Z,2.70
2022-10-25T08:27:23.010Z,2.90
2022-10-25T08:29:53.659Z,2.20
2022-10-25T08:32:24.014Z,6.20
2022-10-25T08:34:54.897Z,5.60
2022-10-25T08:37:25.553Z,3.80
2022-10-25T08:39:56.609Z,3.00
2022-10-25T08:42:50.053Z,6.20
2022-10-25T08:45:27.546Z,5.60
2022-10-25T08:48:00.326Z,4.10
2022-10-25T08:50:39.114Z,4.70
2022-10-25T08:53:18.365Z,4.30
2022-10-25T08:56:11.696Z,3.60
2022-10-25T08:58:48.820Z,4.50
2022-10-25T09:01:25.195Z,3.10
2022-10-25T09:03:55.712Z,5.00
2022-10-25T09:06:35.703Z,3.60
2022-10-25T09:09:18.529Z,3.50
2022-10-25T09:12:02.125Z,9.50
2022-10-25T09:14:45.509Z,7.20
2022-10-25T09:17:20.997Z,7.70
2022-10-25T09:20:03.912Z,3.60
2022-10-25T09:22:45.505Z,6.90
2022-10-25T09:25:22.264Z,6.40
2022-10-25T09:28:01.134Z,3.80
2022-10-25T09:30:38.225Z,14.50
2022-10-25T09:33:13.753Z,5.80
2022-10-25T09:35:47.300Z,4.70
2022-10-25T09:38:23.011Z,6.30
2022-10-25T09:41:01.154Z,4.30
2022-10-25T09:43:38.609Z,5.50
2022-10-25T09:46:15.739Z,3.90
2022-10-25T09:48:51.669Z,7.50
2022-10-25T09:51:28.306Z,6.20
2022-10-25T09:54:01.414Z,5.10
2022-10-25T09:56:32.077Z,5.30
2022-10-25T09:59:04.423Z,3.90
2022-10-25T10:01:37.898Z,4.90
2022-10-25T10:04:24.614Z,5.80
2022-10-25T10:06:59.043Z,3.70
2022-10-25T10:09:32.437Z,4.20
2022-10-25T10:12:05.522Z,3.20
2022-10-25T10:14:42.213Z,2.60
2022-10-25T10:17:18.297Z,2.80
2022-10-25T10:20:09.891Z,3.90
2022-10-25T10:22:46.555Z,6.50
2022-10-25T10:25:22.611Z,3.50
2022-10-25T10:27:55.696Z,7.90
2022-10-25T10:30:29.809Z,8.10
2022-10-25T10:33:02.612Z,3.30
2022-10-25T10:35:35.822Z,4.30
2022-10-25T10:38:24.472Z,6.10
2022-10-25T10:41:14.145Z,5.70
2022-10-25T10:43:45.067Z,3.80
2022-10-25T10:46:18.053Z,2.60
2022-10-25T10:48:54.408Z,4.90
2022-10-25T10:51:44.153Z,2.20
2022-10-25T10:54:26.708Z,3.00
2022-10-25T10:56:59.684Z,3.30
2022-10-25T10:59:53.271Z,2.90
2022-10-25T11:02:37.488Z,2.30
2022-10-25T11:05:22.524Z,2.70
2022-10-25T11:07:59.102Z,6.60
2022-10-25T11:10:31.928Z,4.80
2022-10-25T11:13:17.836Z,2.20
2022-10-25T11:16:14.984Z,2.40
2022-10-25T11:18:57.110Z,2.70
2022-10-25T11:21:50.334Z,2.60
2022-10-25T11:24:31.573Z,3.40
2022-10-25T11:27:10.349Z,3.10
2022-10-25T11:29:54.613Z,3.60
2022-10-25T11:32:51.349Z,4.50
2022-10-25T11:35:39.088Z,7.20
2022-10-25T11:40:47.828Z,2.30
2022-10-25T11:43:36.236Z,2.30
2022-10-25T11:46:12.857Z,2.50
2022-10-25T11:48:53.150Z,4.10
2022-10-25T11:51:33.149Z,3.60
2022-10-25T11:54:30.008Z,7.50
2022-10-25T11:57:09.336Z,4.30
2022-10-25T11:59:53.751Z,3.50
2022-10-25T12:02:47.095Z,2.30
2022-10-25T12:05:29.671Z,4.10
2022-10-25T12:08:10.022Z,2.40
2022-10-25T12:10:43.803Z,3.40
2022-10-25T12:13:20.655Z,4.30
2022-10-25T12:15:53.334Z,5.60
2022-10-25T12:18:27.488Z,3.00
2022-10-25T12:20:59.453Z,3.80
2022-10-25T12:23:33.020Z,2.40
2022-10-25T12:26:10.803Z,3.20
2022-10-25T12:28:47.633Z,2.30
2022-10-25T12:31:20.739Z,2.80
2022-10-25T12:33:56.754Z,2.70
2022-10-25T12:36:32.637Z,2.50
2022-10-25T12:39:07.914Z,5.10
2022-10-25T12:41:41.461Z,5.70
2022-10-25T12:44:30.642Z,3.60
2022-10-25T12:47:13.262Z,4.20
2022-10-25T12:53:26.708Z,4.50
2022-10-25T12:56:07.682Z,2.50
2022-10-25T12:58:54.513Z,3.00
2022-10-25T13:01:43.008Z,5.10
2022-10-25T13:04:36.108Z,3.60
2022-10-25T13:07:08.608Z,4.70
2022-10-25T13:09:40.738Z,5.60
2022-10-25T13:12:22.894Z,3.60
2022-10-25T13:14:56.201Z,4.80
2022-10-25T13:18:00.802Z,4.40
2022-10-25T13:20:52.519Z,6.00
2022-10-25T13:23:58.459Z,4.00
2022-10-25T13:26:48.430Z,4.40
2022-10-25T13:29:58.726Z,3.70
2022-10-25T13:32:30.669Z,3.50
2022-10-25T13:35:03.786Z,5.60
2022-10-25T13:37:45.737Z,4.00
2022-10-25T13:40:30.907Z,3.50
2022-10-25T13:43:07.506Z,7.20
2022-10-25T13:45:45.814Z,5.60
2022-10-25T13:48:28.556Z,5.70
2022-10-25T13:51:01.085Z,7.80
2022-10-25T13:53:39.332Z,3.50
2022-10-25T13:56:15.966Z,3.50
2022-10-25T13:58:51.531Z,3.00
2022-10-25T14:01:56.693Z,3.70
2022-10-25T14:04:38.501Z,4.00
2022-10-25T14:07:46.448Z,2.80
2022-10-25T14:10:22.307Z,5.80
2022-10-25T14:12:56.316Z,6.20
2022-10-25T14:15:37.304Z,3.20
2022-10-25T14:18:15.274Z,2.90
2022-10-25T14:20:50.480Z,3.60
2022-10-25T14:23:25.745Z,3.90
2022-10-25T14:25:59.400Z,4.10
2022-10-25T14:28:32.003Z,4.40
2022-10-25T14:31:04.240Z,3.60
2022-10-25T14:33:39.429Z,2.80
2022-10-25T14:36:23.716Z,3.30
2022-10-25T14:38:56.412Z,5.70
2022-10-25T14:41:29.086Z,4.80
2022-10-25T14:44:00.137Z,4.10
2022-10-25T14:46:31.683Z,4.60
2022-10-25T14:49:03.352Z,4.50
2022-10-25T14:51:36.426Z,5.60
2022-10-25T14:54:20.054Z,4.30
2022-10-25T14:56:54.280Z,2.70
2022-10-25T14:59:28.239Z,4.20
2022-10-25T15:02:01.310Z,5.70
2022-10-25T15:04:35.085Z,3.30
2022-10-25T15:07:06.480Z,4.10
2022-10-25T15:09:42.579Z,5.50
2022-10-25T15:12:24.715Z,4.20
2022-10-25T15:14:56.063Z,5.30
2022-10-25T15:17:30.981Z,6.10
2022-10-25T15:20:08.406Z,5.80
2022-10-25T15:22:47.487Z,3.60
2022-10-25T15:25:29.713Z,4.50
2022-10-25T15:28:12.263Z,4.70
2022-10-25T15:30:58.608Z,4.30
2022-10-25T15:33:31.605Z,3.20
2022-10-25T15:36:04.325Z,5.50
2022-10-25T15:39:01.819Z,4.50
2022-10-25T15:41:28.306Z,3.60
2022-10-25T15:43:58.757Z,3.20
2022-10-25T15:46:33.338Z,9.40
2022-10-25T15:49:08.378Z,5.50
2022-10-25T15:51:42.074Z,4.00
2022-10-25T15:54:17.634Z,4.00
2022-10-25T15:56:48.556Z,3.90
2022-10-25T15:59:19.207Z,4.20
2022-10-25T16:01:53.302Z,6.00
2022-10-25T16:04:24.881Z,8.80
2022-10-25T16:06:55.374Z,9.30
2022-10-25T16:09:25.752Z,5.70
2022-10-25T16:11:56.530Z,6.00
2022-10-25T16:14:28.719Z,5.50
2022-10-25T16:17:00.005Z,7.50
2022-10-25T16:19:31.601Z,9.00
2022-10-25T16:22:02.949Z,5.20
2022-10-25T16:24:33.703Z,6.90
2022-10-25T16:27:04.150Z,4.60
2022-10-25T16:29:34.614Z,6.50
2022-10-25T16:32:05.622Z,5.50
2022-10-25T16:34:36.144Z,7.80
2022-10-25T16:37:11.378Z,4.70
2022-10-25T16:39:42.231Z,8.00
2022-10-25T16:42:27.465Z,7.50
2022-10-25T16:44:58.183Z,4.90
2022-10-25T16:47:29.575Z,4.50
2022-10-25T16:50:00.256Z,5.20
2022-10-25T16:52:30.923Z,7.70
2022-10-25T16:55:01.244Z,6.20
2022-10-25T16:57:31.564Z,6.80
2022-10-25T17:00:02.015Z,6.40
2022-10-25T17:02:32.627Z,7.60
2022-10-25T17:05:03.106Z,6.30
2022-10-25T17:07:34.498Z,6.80
2022-10-25T17:10:05.387Z,10.90
2022-10-25T17:12:42.650Z,6.50
2022-10-25T17:15:14.847Z,26.00
2022-10-25T17:17:46.660Z,16.00
2022-10-25T17:20:18.928Z,6.20
2022-10-25T17:22:50.424Z,6.30
2022-10-25T17:25:21.351Z,8.60
2022-10-25T17:27:54.623Z,5.20
2022-10-25T17:30:26.361Z,7.20
2022-10-25T17:32:57.060Z,7.10
2022-10-25T17:35:29.950Z,6.90
2022-10-25T17:38:00.335Z,6.30
2022-10-25T17:40:30.682Z,6.80
2022-10-25T17:43:01.775Z,8.10
2022-10-25T17:45:33.202Z,6.70
2022-10-25T17:48:04.171Z,8.60
2022-10-25T17:50:36.136Z,4.60
2022-10-25T17:53:06.790Z,10.60
2022-10-25T17:55:41.100Z,13.10
2022-10-25T17:58:12.423Z,12.70
2022-10-25T18:00:43.524Z,8.30
2022-10-25T18:03:15.588Z,5.00
2022-10-25T18:05:48.437Z,7.40
2022-10-25T18:08:19.052Z,10.80
2022-10-25T18:10:49.410Z,13.40
2022-10-25T18:13:23.877Z,8.20
2022-10-25T18:15:54.891Z,6.90
2022-10-25T18:18:25.395Z,7.30
2022-10-25T18:20:56.078Z,7.80
2022-10-25T18:23:26.458Z,14.50
2022-10-25T18:28:33.135Z,13.30
2022-10-25T18:31:04.885Z,12.00
2022-10-25T18:33:37.336Z,7.80
2022-10-25T18:36:11.197Z,8.50
2022-10-25T18:38:42.216Z,11.30
2022-10-25T18:41:14.659Z,7.90
2022-10-25T18:43:45.063Z,11.60
2022-10-25T18:46:16.550Z,16.00
2022-10-25T18:48:51.485Z,11.10
2022-10-25T18:51:23.663Z,5.10
2022-10-25T18:53:56.845Z,7.40
2022-10-25T18:56:27.916Z,6.50
2022-10-25T18:58:59.953Z,6.80
2022-10-25T19:01:33.245Z,8.00
2022-10-25T19:04:05.187Z,5.20
2022-10-25T19:06:36.562Z,5.20
2022-10-25T19:09:07.836Z,4.90
2022-10-25T19:11:38.837Z,5.10
2022-10-25T19:14:09.797Z,4.70
2022-10-25T19:16:41.455Z,7.00
2022-10-25T19:19:12.923Z,7.70
2022-10-25T19:21:44.054Z,6.40
2022-10-25T19:24:16.692Z,12.10
2022-10-25T19:26:47.469Z,9.50
2022-10-25T19:29:18.182Z,8.00
2022-10-25T19:31:49.889Z,5.30
2022-10-25T19:34:20.591Z,5.90
2022-10-25T19:36:51.974Z,7.60
2022-10-25T19:39:22.580Z,5.50
2022-10-25T19:41:53.511Z,4.40
2022-10-25T19:44:24.396Z,4.40
2022-10-25T19:46:54.841Z,6.20
2022-10-25T19:49:25.592Z,5.00
2022-10-25T19:51:56.329Z,6.30
2022-10-25T19:54:27.055Z,4.70
2022-10-25T19:57:01.289Z,7.50
2022-10-25T19:59:31.724Z,5.10
2022-10-25T20:02:02.932Z,6.50
2022-10-25T20:04:37.670Z,6.70
2022-10-25T20:07:46.411Z,8.70
2022-10-25T20:10:18.101Z,9.70
2022-10-25T20:12:51.437Z,7.90
2022-10-25T20:15:22.283Z,5.30
2022-10-25T20:17:54.916Z,7.20
2022-10-25T20:20:26.228Z,6.10
2022-10-25T20:22:57.489Z,8.70
2022-10-25T20:25:29.909Z,7.20
2022-10-25T20:28:02.602Z,4.90
2022-10-25T20:30:35.314Z,4.30
2022-10-25T20:33:06.182Z,6.10
2022-10-25T20:35:44.287Z,4.70
2022-10-25T20:38:17.184Z,4.40
2022-10-25T20:40:48.224Z,5.60
2022-10-25T20:43:19.745Z,6.40
2022-10-25T20:45:54.630Z,7.60
2022-10-25T20:48:35.333Z,7.20
2022-10-25T20:51:09.817Z,14.10
2022-10-25T20:53:57.365Z,14.80
2022-10-25T20:56:28.491Z,18.00
2022-10-25T20:59:00.523Z,14.90
2022-10-25T21:01:32.244Z,13.10
2022-10-25T21:04:04.022Z,13.20
2022-10-25T21:06:35.623Z,9.60
2022-10-25T21:09:07.502Z,6.60
2022-10-25T21:11:38.501Z,7.90
2022-10-25T21:14:11.603Z,8.50
2022-10-25T21:16:42.368Z,10.90
2022-10-25T21:19:25.049Z,8.60
2022-10-25T21:21:55.957Z,7.20
2022-10-25T21:24:27.073Z,7.20
2022-10-25T21:27:01.022Z,6.10
2022-10-25T21:29:32.313Z,7.10
2022-10-25T21:32:06.047Z,6.10
2022-10-25T21:34:37.635Z,7.90
2022-10-25T21:37:09.119Z,8.30
2022-10-25T21:39:42.585Z,5.00
2022-10-25T21:42:13.477Z,5.60
2022-10-25T21:44:44.766Z,6.70
2022-10-25T21:47:15.493Z,6.90
2022-10-25T21:49:46.110Z,6.50
2022-10-25T21:52:16.482Z,5.50
2022-10-25T21:54:47.164Z,5.60
2022-10-25T21:57:17.978Z,4.60
2022-10-25T21:59:48.391Z,7.10
2022-10-25T22:02:19.419Z,6.20
2022-10-25T22:04:50.205Z,5.90
2022-10-25T22:07:21.305Z,11.40
2022-10-25T22:09:51.676Z,13.90
2022-10-25T22:12:22.031Z,8.00
2022-10-25T22:14:53.150Z,4.50
2022-10-25T22:17:24.170Z,6.10
2022-10-25T22:19:54.817Z,4.80
2022-10-25T22:22:25.188Z,4.00
2022-10-25T22:24:55.599Z,3.90
2022-10-25T22:27:26.829Z,5.20
2022-10-25T22:29:57.873Z,4.50
2022-10-25T22:32:28.540Z,4.30
2022-10-25T22:34:59.226Z,4.10
2022-10-25T22:37:29.553Z,5.20
2022-10-25T22:39:59.921Z,4.20
2022-10-25T22:42:30.684Z,4.00
2022-10-25T22:45:01.085Z,5.50
2022-10-25T22:47:32.217Z,4.90
2022-10-25T22:50:02.641Z,8.60
2022-10-25T22:52:33.373Z,4.70
2022-10-25T22:55:04.440Z,5.30
2022-10-25T22:57:35.218Z,4.30
2022-10-25T23:00:06.552Z,3.20
2022-10-25T23:02:36.938Z,15.50
2022-10-25T23:05:08.787Z,4.20
2022-10-25T23:07:39.257Z,4.10
2022-10-25T23:10:11.079Z,4.70
2022-10-25T23:12:41.854Z,3.80
2022-10-25T23:15:13.083Z,4.40
2022-10-25T23:17:43.486Z,2.60
2022-10-25T23:20:14.191Z,3.90
2022-10-25T23:22:44.871Z,4.10
2022-10-25T23:25:15.584Z,4.30
2022-10-25T23:27:46.674Z,7.80
2022-10-25T23:30:17.634Z,4.20
2022-10-25T23:32:48.555Z,4.80
2022-10-25T23:35:19.051Z,4.50
2022-10-25T23:37:50.062Z,3.90
2022-10-25T23:40:20.657Z,3.20
2022-10-25T23:42:51.019Z,3.40
2022-10-25T23:45:21.949Z,3.20
2022-10-25T23:47:52.318Z,3.20
2022-10-25T23:50:22.985Z,3.10
2022-10-25T23:52:53.767Z,3.60
2022-10-25T23:55:24.181Z,4.00
2022-10-25T23:58:00.143Z,3.80
